Time;durP1;ratioP1;P1;durP2;ratioP2;P2;SDS_P1;SDS_P2;PMS_P1;PMS_P2;Temp;Humidity;BMP_temperature;BMP_pressure;BME280_temperature;BME280_humidity;BME280_pressure;Samples;Min_cycle;Max_cycle;Signal;HPM_P1;HPM_P2
2023/08/29 00:00:09;;;;;;;1.60;0.75;;;;;;;17.16;100.00;96359.09;1225240;75;2922595;-65
2023/08/29 00:02:43;;;;;;;0.90;0.40;;;;;;;17.16;100.00;96361.88;1224586;75;2921810;-70
2023/08/29 00:05:16;;;;;;;1.10;0.50;;;;;;;17.19;100.00;96363.53;1225288;75;2923796;-68
2023/08/29 00:07:49;;;;;;;0.85;0.50;;;;;;;17.31;100.00;96359.09;1225490;75;2920639;-66
2023/08/29 00:10:22;;;;;;;0.50;0.45;;;;;;;17.26;100.00;96354.50;1224672;75;2903688;-66
2023/08/29 00:12:55;;;;;;;1.10;0.60;;;;;;;17.40;100.00;96355.03;1225410;75;2921535;-68
2023/08/29 00:15:30;;;;;;;1.40;0.50;;;;;;;17.50;100.00;96341.38;1224717;75;2919973;-68
2023/08/29 00:18:03;;;;;;;0.60;0.20;;;;;;;17.66;100.00;96337.31;1223682;75;2928114;-66
2023/08/29 00:20:35;;;;;;;0.35;0.30;;;;;;;17.44;100.00;96342.31;1224278;75;2923559;-68
2023/08/29 00:23:09;;;;;;;2.45;0.40;;;;;;;17.57;100.00;96338.59;1224483;75;2924328;-66
2023/08/29 00:25:41;;;;;;;1.00;0.35;;;;;;;17.71;100.00;96335.66;1224693;75;2923584;-67
2023/08/29 00:28:14;;;;;;;0.20;0.20;;;;;;;17.71;100.00;96343.94;1225359;75;2918332;-68
2023/08/29 00:30:49;;;;;;;0.25;0.20;;;;;;;17.56;100.00;96344.72;1224791;75;2918120;-65
2023/08/29 00:33:22;;;;;;;1.15;0.60;;;;;;;17.46;100.00;96336.97;1224215;75;2927817;-66
2023/08/29 00:35:54;;;;;;;1.10;0.45;;;;;;;17.68;100.00;96341.00;1225035;75;2923094;-68
2023/08/29 00:38:27;;;;;;;0.40;0.40;;;;;;;17.66;100.00;96337.31;1224476;75;2927973;-69
2023/08/29 00:41:00;;;;;;;0.50;0.35;;;;;;;17.73;100.00;96336.56;1224854;75;2926364;-67
2023/08/29 00:43:32;;;;;;;0.30;0.30;;;;;;;17.80;100.00;96344.16;1224000;75;2934252;-67
2023/08/29 00:46:07;;;;;;;0.25;0.20;;;;;;;17.82;100.00;96338.78;1225283;75;2919357;-66
2023/08/29 00:48:40;;;;;;;0.75;0.40;;;;;;;17.75;100.00;96333.22;1224116;75;2925561;-66
2023/08/29 00:51:13;;;;;;;1.55;0.50;;;;;;;17.71;100.00;96347.44;1222201;75;2945200;-67
2023/08/29 00:53:46;;;;;;;0.70;0.25;;;;;;;17.92;100.00;96357.56;1224673;75;2922760;-67
2023/08/29 00:56:19;;;;;;;0.20;0.20;;;;;;;17.95;100.00;96357.22;1224531;75;2927080;-66
2023/08/29 00:58:52;;;;;;;0.85;0.40;;;;;;;17.89;100.00;96351.13;1223661;75;2927609;-70
2023/08/29 01:01:28;;;;;;;0.60;0.40;;;;;;;17.46;100.00;96347.28;1224799;75;2919888;-69
2023/08/29 01:04:01;;;;;;;1.45;0.40;;;;;;;17.41;100.00;96354.50;1224214;75;2925930;-65
2023/08/29 01:06:34;;;;;;;1.10;0.50;;;;;;;17.72;100.00;96359.97;1224078;75;2924873;-68
2023/08/29 01:09:07;;;;;;;0.30;0.25;;;;;;;17.72;100.00;96351.69;1224672;75;2929440;-67
2023/08/29 01:11:52;;;;;;;1.20;0.30;;;;;;;17.65;100.00;96358.72;1224412;75;2923626;-66
2023/08/29 01:14:44;;;;;;;0.30;0.30;;;;;;;17.90;100.00;96354.66;1224673;75;2922017;-66
2023/08/29 01:17:30;;;;;;;0.85;0.30;;;;;;;17.79;100.00;96364.78;1225147;75;2921032;-67
2023/08/29 01:20:03;;;;;;;0.20;0.20;;;;;;;17.65;100.00;96352.44;1224220;75;2926637;-65
2023/08/29 01:22:53;;;;;;;0.85;0.30;;;;;;;17.57;100.00;96352.44;1225404;75;2921750;-67
2023/08/29 01:25:34;;;;;;;0.85;0.40;;;;;;;17.54;100.00;96352.84;1225057;75;2918963;-66
2023/08/29 01:28:11;;;;;;;0.70;0.60;;;;;;;17.73;100.00;96346.91;1224859;75;2923003;-66
2023/08/29 01:30:45;;;;;;;0.20;0.20;;;;;;;17.88;100.00;96339.31;1223986;75;2926131;-70
2023/08/29 01:33:18;;;;;;;0.40;0.30;;;;;;;17.98;100.00;96333.19;1224189;75;2924539;-67
2023/08/29 01:35:51;;;;;;;1.00;0.50;;;;;;;17.84;100.00;96313.31;1224682;75;2921709;-64
2023/08/29 01:38:23;;;;;;;0.35;0.20;;;;;;;17.82;100.00;96319.41;1224661;75;2925456;-68
2023/08/29 01:40:56;;;;;;;0.40;0.30;;;;;;;17.91;100.00;96312.53;1224906;75;2926185;-65
2023/08/29 01:43:31;;;;;;;0.50;0.20;;;;;;;17.93;100.00;96307.19;1223356;75;2933902;-64
2023/08/29 01:46:04;;;;;;;0.70;0.40;;;;;;;17.73;100.00;96308.88;1224718;75;2924018;-66
2023/08/29 01:48:37;;;;;;;0.60;0.30;;;;;;;17.85;100.00;96312.03;1225298;75;2927226;-65
2023/08/29 01:51:10;;;;;;;0.45;0.25;;;;;;;17.63;100.00;96300.41;1224536;75;2926834;-67
2023/08/29 01:53:42;;;;;;;0.25;0.25;;;;;;;17.69;100.00;96305.75;1224379;75;2925748;-66
2023/08/29 01:56:19;;;;;;;0.30;0.30;;;;;;;17.74;100.00;96307.56;1224775;75;2917709;-67
2023/08/29 01:58:59;;;;;;;0.70;0.40;;;;;;;17.48;100.00;96302.47;1224681;75;2924207;-67
2023/08/29 02:01:33;;;;;;;0.85;0.65;;;;;;;17.51;100.00;96296.56;1224588;75;2925963;-65
2023/08/29 02:04:06;;;;;;;0.45;0.45;;;;;;;17.66;100.00;96306.88;1225013;75;2925261;-66
2023/08/29 02:06:39;;;;;;;0.60;0.50;;;;;;;17.80;100.00;96305.38;1223952;75;2918811;-66
2023/08/29 02:09:11;;;;;;;0.70;0.50;;;;;;;17.68;100.00;96307.78;1224256;75;2928049;-66
2023/08/29 02:11:44;;;;;;;0.60;0.40;;;;;;;17.58;100.00;96311.66;1224509;75;2922395;-68
2023/08/29 02:14:19;;;;;;;0.50;0.35;;;;;;;17.69;100.00;96319.59;1225617;75;2842142;-68
2023/08/29 02:16:52;;;;;;;0.20;0.20;;;;;;;17.80;100.00;96322.00;1221766;75;2982284;-67
2023/08/29 02:19:26;;;;;;;0.30;0.20;;;;;;;17.96;100.00;96311.59;1224647;75;2924506;-66
2023/08/29 02:21:58;;;;;;;0.30;0.30;;;;;;;17.97;100.00;96309.59;1224195;75;2928129;-67
2023/08/29 02:24:32;;;;;;;0.30;0.25;;;;;;;17.78;100.00;96309.97;1224262;75;2925035;-66
2023/08/29 02:27:05;;;;;;;2.40;0.40;;;;;;;17.70;100.00;96315.50;1225159;75;2922631;-67
2023/08/29 02:29:40;;;;;;;0.85;0.30;;;;;;;17.90;100.00;96304.81;1223899;75;2927407;-67
2023/08/29 02:32:12;;;;;;;0.30;0.20;;;;;;;18.04;100.00;96303.28;1224060;75;2928159;-65
2023/08/29 02:34:45;;;;;;;0.30;0.15;;;;;;;18.12;100.00;96304.00;1224118;75;2925820;-66
2023/08/29 02:37:17;;;;;;;0.10;0.10;;;;;;;18.09;100.00;96297.53;1224412;75;2922224;-68
2023/08/29 02:39:50;;;;;;;0.20;0.15;;;;;;;18.09;100.00;96303.06;1223807;75;2919952;-66
2023/08/29 02:42:23;;;;;;;0.30;0.30;;;;;;;17.99;100.00;96295.91;1224334;75;2920761;-66
2023/08/29 02:44:58;;;;;;;0.30;0.30;;;;;;;17.91;100.00;96295.19;1224372;75;2922209;-65
2023/08/29 02:47:31;;;;;;;0.40;0.20;;;;;;;18.11;100.00;96299.72;1224648;75;2921435;-64
2023/08/29 02:50:03;;;;;;;0.20;0.20;;;;;;;18.16;100.00;96301.56;1224204;75;2929575;-69
2023/08/29 02:52:36;;;;;;;0.30;0.20;;;;;;;18.17;100.00;96294.00;1225177;75;2923338;-67
2023/08/29 02:55:10;;;;;;;0.35;0.20;;;;;;;18.22;100.00;96284.75;1224190;75;2934059;-64
2023/08/29 02:57:43;;;;;;;0.30;0.30;;;;;;;18.12;100.00;96279.06;1223973;75;2925032;-65
2023/08/29 03:00:20;;;;;;;0.20;0.20;;;;;;;18.21;100.00;96283.28;1224277;75;2925372;-66
2023/08/29 03:02:53;;;;;;;0.40;0.20;;;;;;;18.19;100.00;96283.81;1224365;75;2928633;-66
2023/08/29 03:05:25;;;;;;;0.95;0.20;;;;;;;18.18;100.00;96276.06;1224498;75;2928729;-66
2023/08/29 03:07:58;;;;;;;0.60;0.30;;;;;;;18.17;100.00;96282.91;1224370;75;2940320;-67
2023/08/29 03:10:31;;;;;;;0.10;0.10;;;;;;;18.15;100.00;96271.66;1223778;75;2926318;-68
2023/08/29 03:13:04;;;;;;;1.95;0.30;;;;;;;17.99;100.00;96279.28;1224835;75;2918221;-68
2023/08/29 03:15:40;;;;;;;0.20;0.20;;;;;;;18.14;100.00;96272.97;1225765;75;2919124;-68
2023/08/29 03:18:13;;;;;;;0.40;0.40;;;;;;;18.28;100.00;96272.16;1224823;75;2924625;-66
2023/08/29 03:20:47;;;;;;;0.10;0.10;;;;;;;18.27;100.00;96265.13;1225143;75;2924856;-69
2023/08/29 03:23:19;;;;;;;0.10;0.10;;;;;;;18.27;100.00;96262.34;1224482;75;2926480;-65
2023/08/29 03:25:52;;;;;;;1.95;0.45;;;;;;;17.99;100.00;96259.91;1224396;75;2923948;-68
2023/08/29 03:28:25;;;;;;;2.10;1.25;;;;;;;17.81;100.00;96261.84;1225304;75;2923566;-68
2023/08/29 03:31:00;;;;;;;1.70;1.30;;;;;;;17.97;100.00;96257.72;1225082;75;2926262;-67
2023/08/29 03:33:32;;;;;;;1.30;1.00;;;;;;;18.05;100.00;96255.63;1223940;75;2927730;-66
2023/08/29 03:36:05;;;;;;;1.20;0.80;;;;;;;17.88;100.00;96264.56;1225056;75;2922779;-66
2023/08/29 03:38:40;;;;;;;0.95;0.50;;;;;;;18.00;100.00;96258.63;1224389;75;2923393;-67
2023/08/29 03:41:12;;;;;;;2.15;0.50;;;;;;;17.72;100.00;96254.81;1224184;75;2922630;-66
2023/08/29 03:43:45;;;;;;;1.20;0.50;;;;;;;17.94;100.00;96255.31;1224401;75;2926227;-70
2023/08/29 03:46:21;;;;;;;0.65;0.55;;;;;;;17.73;100.00;96263.88;1224595;75;2922426;-67
2023/08/29 03:48:53;;;;;;;0.60;0.40;;;;;;;17.85;100.00;96265.69;1224708;75;2922805;-70
2023/08/29 03:51:26;;;;;;;0.60;0.40;;;;;;;18.14;100.00;96261.88;1225292;75;2926479;-70
2023/08/29 03:53:59;;;;;;;0.45;0.40;;;;;;;17.97;100.00;96257.72;1223644;75;2928393;-66
2023/08/29 03:56:33;;;;;;;0.55;0.55;;;;;;;18.04;100.00;96267.28;1223975;75;2921113;-65
2023/08/29 03:59:06;;;;;;;0.30;0.30;;;;;;;17.92;100.00;96268.97;1224524;75;2925303;-66
2023/08/29 04:01:41;;;;;;;0.80;0.70;;;;;;;17.55;100.00;96277.53;1224297;75;2919041;-66
2023/08/29 04:04:13;;;;;;;1.15;0.50;;;;;;;17.64;100.00;96273.47;1224668;75;2922412;-67
2023/08/29 04:06:46;;;;;;;0.80;0.50;;;;;;;17.82;100.00;96277.88;1224997;75;2922241;-69
2023/08/29 04:09:18;;;;;;;0.60;0.30;;;;;;;17.69;100.00;96289.16;1224040;75;2925950;-67
2023/08/29 04:11:51;;;;;;;0.95;0.85;;;;;;;17.67;100.00;96291.72;1224704;75;2933621;-68
2023/08/29 04:14:23;;;;;;;0.40;0.40;;;;;;;17.70;100.00;96303.72;1224925;75;2921251;-67
2023/08/29 04:16:59;;;;;;;2.55;0.90;;;;;;;17.41;100.00;96303.94;1225140;75;2920379;-67
2023/08/29 04:19:31;;;;;;;2.05;1.10;;;;;;;17.41;100.00;96309.47;1223551;75;2918388;-66
2023/08/29 04:22:04;;;;;;;2.10;0.80;;;;;;;17.33;100.00;96315.03;1225023;75;2922611;-67
2023/08/29 04:24:37;;;;;;;2.20;0.80;;;;;;;17.67;100.00;96302.78;1225327;75;2921378;-67
2023/08/29 04:27:10;;;;;;;1.55;0.65;;;;;;;17.59;100.00;96302.09;1224751;75;2924168;-66
2023/08/29 04:29:42;;;;;;;1.10;0.70;;;;;;;17.59;100.00;96311.13;1224428;75;2924695;-67
2023/08/29 04:32:18;;;;;;;2.65;1.15;;;;;;;17.24;100.00;96315.56;1225170;75;2923083;-70
2023/08/29 04:34:50;;;;;;;3.55;1.30;;;;;;;17.08;100.00;96327.91;1224601;75;2928070;-68
2023/08/29 04:37:23;;;;;;;1.35;0.80;;;;;;;17.55;100.00;96323.84;1224206;75;2929379;-68
2023/08/29 04:39:55;;;;;;;2.20;0.85;;;;;;;17.62;100.00;96317.56;1224468;75;2918273;-68
2023/08/29 04:42:28;;;;;;;1.25;0.60;;;;;;;17.73;100.00;96333.06;1224193;75;2927299;-67
2023/08/29 04:45:00;;;;;;;0.95;0.50;;;;;;;17.87;100.00;96332.31;1224847;75;2923568;-65
2023/08/29 04:47:36;;;;;;;1.70;0.70;;;;;;;17.80;100.00;96319.22;1224407;75;2926528;-65
2023/08/29 04:50:10;;;;;;;0.60;0.45;;;;;;;17.74;100.00;96326.22;1224148;75;2927474;-68
2023/08/29 04:52:43;;;;;;;2.10;1.20;;;;;;;17.34;100.00;96313.00;1224376;75;2924198;-68
2023/08/29 04:55:16;;;;;;;2.35;1.35;;;;;;;17.38;100.00;96313.38;1224168;75;2923290;-64
2023/08/29 04:57:48;;;;;;;1.90;1.05;;;;;;;17.43;100.00;96309.66;1223951;75;2922373;-66
2023/08/29 05:00:22;;;;;;;1.30;0.75;;;;;;;17.50;100.00;96314.44;1223918;75;2931369;-68
2023/08/29 05:02:57;;;;;;;1.30;0.80;;;;;;;17.66;100.00;96313.13;1225119;75;2920486;-68
2023/08/29 05:05:30;;;;;;;0.95;0.85;;;;;;;17.50;100.00;96308.91;1224754;75;2920915;-69
2023/08/29 05:08:04;;;;;;;1.95;0.90;;;;;;;17.38;100.00;96325.16;1223546;75;2928401;-66
2023/08/29 05:10:36;;;;;;;1.20;0.80;;;;;;;17.53;100.00;96332.69;1225093;75;2920570;-66
2023/08/29 05:13:09;;;;;;;1.00;0.80;;;;;;;17.60;100.00;96323.66;1223922;75;2926490;-66
2023/08/29 05:15:41;;;;;;;1.65;0.90;;;;;;;17.50;100.00;96327.56;1224395;75;2923787;-67
2023/08/29 05:18:16;;;;;;;0.70;0.50;;;;;;;17.80;100.00;96329.53;1224570;75;2923650;-68
2023/08/29 05:20:49;;;;;;;1.15;0.55;;;;;;;17.63;100.00;96333.63;1224219;75;2924114;-66
2023/08/29 05:23:22;;;;;;;1.00;0.60;;;;;;;17.86;100.00;96325.28;1222380;75;2921308;-65
2023/08/29 05:25:55;;;;;;;1.45;0.70;;;;;;;17.81;100.00;96333.81;1225712;75;2845612;-65
2023/08/29 05:28:27;;;;;;;1.70;0.60;;;;;;;17.68;100.00;96341.00;1224657;75;2926263;-66
2023/08/29 05:31:00;;;;;;;2.15;1.10;;;;;;;17.58;100.00;96322.75;1224838;75;2922440;-67
2023/08/29 05:33:35;;;;;;;0.85;0.65;;;;;;;17.61;100.00;96311.31;1224093;75;2922970;-67
2023/08/29 05:36:08;;;;;;;2.10;1.05;;;;;;;17.59;100.00;96321.47;1223810;75;2925244;-64
2023/08/29 05:38:40;;;;;;;1.20;0.70;;;;;;;17.90;100.00;96324.19;1223709;75;2918825;-65
2023/08/29 05:41:13;;;;;;;0.80;0.60;;;;;;;17.88;100.00;96319.22;1223611;75;2920170;-66
2023/08/29 05:43:46;;;;;;;0.95;0.60;;;;;;;17.70;100.00;96318.28;1224394;75;2927546;-64
2023/08/29 05:46:18;;;;;;;1.75;1.05;;;;;;;17.84;100.00;96322.34;1223985;75;2927431;-66
2023/08/29 05:48:53;;;;;;;3.30;0.95;;;;;;;17.76;100.00;96313.31;1224711;75;2926171;-66
2023/08/29 05:51:26;;;;;;;1.25;0.70;;;;;;;18.04;100.00;96309.56;1224296;75;2922023;-66
2023/08/29 05:53:58;;;;;;;1.05;0.60;;;;;;;18.17;100.00;96310.63;1224093;75;2893004;-69
2023/08/29 05:56:31;;;;;;;0.65;0.65;;;;;;;18.01;100.00;96305.13;1224492;75;2926937;-65
2023/08/29 05:59:04;;;;;;;1.20;0.90;;;;;;;17.68;100.00;96304.28;1224477;75;2931765;-67
2023/08/29 06:01:37;;;;;;;1.35;0.85;;;;;;;17.63;100.00;96303.19;1224221;75;2965922;-66
2023/08/29 06:04:13;;;;;;;1.30;0.95;;;;;;;17.67;100.00;96308.34;1221771;75;2927049;-66
2023/08/29 06:06:45;;;;;;;1.15;1.00;;;;;;;17.66;100.00;96309.63;1224651;75;2883493;-67
2023/08/29 06:09:15;;;;;;;3.15;0.95;;;;;;;17.59;100.00;96313.88;1224857;75;2917941;-70
2023/08/29 06:11:48;;;;;;;2.35;0.90;;;;;;;17.70;100.00;96320.31;1224400;75;2923515;-65
2023/08/29 06:14:21;;;;;;;1.60;1.10;;;;;;;17.61;100.00;96319.59;1224392;75;2923122;-66
2023/08/29 06:16:53;;;;;;;3.95;1.60;;;;;;;17.60;100.00;96320.88;1224709;75;2925164;-66
2023/08/29 06:19:29;;;;;;;1.85;1.20;;;;;;;17.86;100.00;96330.81;1224920;75;2921616;-67
2023/08/29 06:22:01;;;;;;;1.70;1.20;;;;;;;18.12;100.00;96328.91;1224116;75;2923458;-66
2023/08/29 06:24:34;;;;;;;1.00;0.90;;;;;;;18.04;100.00;96322.69;1224785;75;2919858;-67
2023/08/29 06:27:07;;;;;;;2.15;1.00;;;;;;;18.06;100.00;96314.53;1224917;75;2918591;-69
2023/08/29 06:29:40;;;;;;;1.55;1.00;;;;;;;18.14;100.00;96325.59;1224379;75;2922813;-69
2023/08/29 06:32:12;;;;;;;1.85;1.20;;;;;;;18.03;100.00;96337.81;1225062;75;2923917;-66
2023/08/29 06:34:47;;;;;;;2.10;1.20;;;;;;;18.00;100.00;96341.69;1224592;75;2921849;-67
2023/08/29 06:37:20;;;;;;;2.30;1.10;;;;;;;17.94;100.00;96344.66;1224712;75;2909288;-67
2023/08/29 06:39:53;;;;;;;3.70;1.30;;;;;;;18.20;100.00;96357.31;1224672;75;2920371;-67
2023/08/29 06:42:26;;;;;;;5.35;1.45;;;;;;;18.10;100.00;96348.13;1224599;75;2928994;-67
2023/08/29 06:44:58;;;;;;;1.85;1.10;;;;;;;18.21;100.00;96353.25;1224275;75;2918379;-67
2023/08/29 06:47:31;;;;;;;1.75;0.90;;;;;;;18.40;100.00;96349.28;1224445;75;2923834;-67
2023/08/29 06:50:06;;;;;;;1.65;1.10;;;;;;;18.35;100.00;96351.00;1223025;75;2941781;-66
2023/08/29 06:52:41;;;;;;;1.35;1.00;;;;;;;18.23;100.00;96352.69;1224241;75;2922406;-68
2023/08/29 06:55:13;;;;;;;1.70;0.80;;;;;;;18.36;100.00;96354.50;1224295;75;2928490;-68
2023/08/29 06:57:46;;;;;;;2.65;0.90;;;;;;;18.33;100.00;96355.59;1224911;75;2918773;-66
2023/08/29 07:00:22;;;;;;;2.25;1.10;;;;;;;18.33;100.00;96350.81;1224906;75;2922012;-67
2023/08/29 07:02:55;;;;;;;3.05;1.55;;;;;;;18.29;100.00;96359.50;1224610;75;2925995;-66
2023/08/29 07:05:30;;;;;;;3.40;1.55;;;;;;;18.14;100.00;96347.75;1225177;75;2919993;-64
2023/08/29 07:08:03;;;;;;;4.95;1.85;;;;;;;17.92;100.00;96358.34;1224501;75;2924820;-67
2023/08/29 07:10:36;;;;;;;2.25;1.30;;;;;;;18.14;100.00;96361.59;1225144;75;2930204;-68
2023/08/29 07:13:08;;;;;;;2.75;1.50;;;;;;;18.14;100.00;96367.88;1224474;75;2928700;-68
2023/08/29 07:15:41;;;;;;;1.50;1.10;;;;;;;18.45;100.00;96362.22;1224346;75;2926403;-68
2023/08/29 07:18:14;;;;;;;1.35;1.05;;;;;;;18.13;100.00;96363.59;1224738;75;2922986;-67
2023/08/29 07:20:52;;;;;;;2.25;1.20;;;;;;;18.04;100.00;96364.22;1224993;75;2927246;-67
2023/08/29 07:23:24;;;;;;;1.80;1.10;;;;;;;18.01;100.00;96360.50;1225573;75;2924135;-70
2023/08/29 07:25:57;;;;;;;1.40;1.30;;;;;;;18.06;100.00;96359.59;1225001;75;2920095;-69
2023/08/29 07:28:30;;;;;;;1.95;1.20;;;;;;;18.09;100.00;96366.78;1223679;75;2925541;-67
2023/08/29 07:31:02;;;;;;;2.35;1.00;;;;;;;18.24;100.00;96357.66;1223794;75;2925577;-66
2023/08/29 07:33:35;;;;;;;1.70;1.00;;;;;;;18.44;100.00;96358.69;1225216;75;2925064;-66
2023/08/29 07:36:11;;;;;;;2.55;1.55;;;;;;;18.50;100.00;96366.81;1224008;75;2918560;-67
2023/08/29 07:38:44;;;;;;;1.75;1.10;;;;;;;18.72;100.00;96356.91;1224235;75;2917853;-67
2023/08/29 07:41:16;;;;;;;1.20;0.80;;;;;;;18.64;100.00;96354.19;1222970;75;2925095;-69
2023/08/29 07:43:49;;;;;;;1.75;0.90;;;;;;;18.45;100.00;96365.00;1224643;75;2921978;-66
2023/08/29 07:46:22;;;;;;;1.25;0.90;;;;;;;18.76;100.00;96348.97;1223739;75;2921024;-69
2023/08/29 07:48:54;;;;;;;0.65;0.65;;;;;;;18.87;100.00;96351.28;1224596;75;2919645;-68
2023/08/29 07:51:30;;;;;;;1.35;1.05;;;;;;;18.60;100.00;96348.28;1225049;75;2923488;-69
2023/08/29 07:54:02;;;;;;;1.85;0.90;;;;;;;18.76;100.00;96357.28;1223028;75;2928803;-68
2023/08/29 07:56:35;;;;;;;0.80;0.70;;;;;;;19.12;100.00;96353.34;1225399;75;2929170;-69
2023/08/29 07:59:08;;;;;;;0.50;0.50;;;;;;;19.17;100.00;96357.94;1224265;75;2919681;-67
2023/08/29 08:01:40;;;;;;;0.40;0.40;;;;;;;19.32;100.00;96348.75;1224530;75;2927908;-67
2023/08/29 08:04:13;;;;;;;0.70;0.60;;;;;;;19.31;100.00;96345.25;1224212;75;2922333;-64
2023/08/29 08:06:48;;;;;;;0.80;0.70;;;;;;;19.13;100.00;96352.78;1223906;75;2920907;-66
2023/08/29 08:09:21;;;;;;;0.50;0.50;;;;;;;19.21;100.00;96361.03;1224526;75;2923494;-66
2023/08/29 08:11:54;;;;;;;1.45;1.00;;;;;;;18.88;100.00;96368.66;1224415;75;2926973;-66
2023/08/29 08:14:26;;;;;;;1.65;1.00;;;;;;;19.01;100.00;96371.19;1224618;75;2920800;-69
2023/08/29 08:16:59;;;;;;;1.20;1.00;;;;;;;18.84;100.00;96369.06;1224273;75;2927231;-66
2023/08/29 08:19:33;;;;;;;1.40;0.90;;;;;;;19.13;100.00;96371.47;1224262;75;2922717;-67
2023/08/29 08:22:09;;;;;;;2.60;0.90;;;;;;;19.22;100.00;96379.19;1224623;75;2919525;-69
2023/08/29 08:24:41;;;;;;;0.90;0.90;;;;;;;19.12;100.00;96386.63;1224324;75;2923286;-67
2023/08/29 08:27:14;;;;;;;1.40;1.00;;;;;;;19.18;100.00;96383.66;1224476;75;2919351;-69
2023/08/29 08:29:46;;;;;;;0.60;0.60;;;;;;;19.35;100.00;96375.38;1225056;75;2924404;-66
2023/08/29 08:32:19;;;;;;;0.95;0.80;;;;;;;19.31;100.00;96383.34;1223421;75;2920020;-67
2023/08/29 08:34:52;;;;;;;0.65;0.65;;;;;;;19.33;100.00;96383.53;1224231;75;2924416;-66
2023/08/29 08:37:27;;;;;;;0.75;0.70;;;;;;;19.55;100.00;96385.41;1225146;75;2922201;-67
2023/08/29 08:40:00;;;;;;;2.45;1.00;;;;;;;19.43;100.00;96389.19;1224568;75;2923826;-68
2023/08/29 08:42:34;;;;;;;1.80;1.10;;;;;;;19.49;100.00;96384.16;1224114;75;2922441;-66
2023/08/29 08:45:10;;;;;;;1.45;1.00;;;;;;;19.48;100.00;96394.53;1224745;75;2918384;-67
2023/08/29 08:47:43;;;;;;;1.50;1.20;;;;;;;19.53;100.00;96398.34;1221698;75;3073115;-68
2023/08/29 08:50:15;;;;;;;2.50;1.30;;;;;;;19.44;100.00;96394.19;1225288;75;2921853;-65
2023/08/29 08:52:52;;;;;;;2.05;1.40;;;;;;;19.62;100.00;96391.44;1224529;75;2918283;-67
2023/08/29 08:55:26;;;;;;;1.65;1.10;;;;;;;19.55;100.00;96390.94;1225072;75;2923201;-65
2023/08/29 08:58:00;;;;;;;1.30;1.20;;;;;;;19.70;100.00;96392.13;1224320;75;2932696;-66
2023/08/29 09:00:32;;;;;;;1.40;1.15;;;;;;;19.77;100.00;96386.53;1224980;75;2922746;-67
2023/08/29 09:03:05;;;;;;;1.35;1.20;;;;;;;19.77;100.00;96394.09;1224802;75;2922029;-66
2023/08/29 09:05:37;;;;;;;2.15;1.30;;;;;;;19.62;100.00;96397.00;1224750;75;2932229;-66
2023/08/29 09:08:13;;;;;;;1.70;1.35;;;;;;;19.68;100.00;96395.50;1225215;75;2924631;-66
2023/08/29 09:10:45;;;;;;;2.10;1.35;;;;;;;19.68;100.00;96389.94;1220541;75;3064130;-66
2023/08/29 09:13:19;;;;;;;1.55;1.00;;;;;;;19.69;100.00;96396.22;1224569;75;2917948;-68
2023/08/29 09:15:52;;;;;;;2.00;1.50;;;;;;;19.67;100.00;96398.81;1224178;75;2919356;-70
2023/08/29 09:18:28;;;;;;;1.65;1.25;;;;;;;19.85;100.00;96394.78;1224790;75;2917557;-66
2023/08/29 09:21:04;;;;;;;1.30;1.20;;;;;;;19.92;100.00;96396.75;1224824;75;2925038;-67
2023/08/29 09:23:42;;;;;;;1.30;1.20;;;;;;;19.94;100.00;96391.38;1224905;75;2924509;-68
2023/08/29 09:26:15;;;;;;;2.50;1.20;;;;;;;19.93;100.00;96389.88;1223064;75;2969369;-67
2023/08/29 09:28:48;;;;;;;2.15;1.65;;;;;;;20.10;100.00;96396.75;1224066;75;2919899;-69
2023/08/29 09:31:21;;;;;;;1.65;1.55;;;;;;;19.94;100.00;96396.16;1224956;75;2924546;-68
2023/08/29 09:33:53;;;;;;;1.70;1.40;;;;;;;20.02;100.00;96398.88;1223654;75;2929853;-66
2023/08/29 09:36:26;;;;;;;2.00;1.60;;;;;;;20.01;100.00;96400.91;1225049;75;2920684;-67
2023/08/29 09:39:02;;;;;;;1.70;1.45;;;;;;;20.10;100.00;96400.25;1224336;75;2923960;-65
2023/08/29 09:41:36;;;;;;;1.80;1.50;;;;;;;20.14;100.00;96402.66;1224385;75;2918850;-67
2023/08/29 09:44:15;;;;;;;1.75;1.45;;;;;;;20.25;100.00;96398.63;1224281;75;2920638;-65
2023/08/29 09:46:48;;;;;;;2.40;1.65;;;;;;;20.15;100.00;96390.94;1224785;75;2917183;-68
2023/08/29 09:49:21;;;;;;;1.50;1.30;;;;;;;20.42;100.00;96384.75;1224475;75;2921224;-67
2023/08/29 09:52:00;;;;;;;2.45;1.90;;;;;;;20.45;100.00;96382.88;1223802;75;2922412;-65
2023/08/29 09:54:37;;;;;;;2.75;1.90;;;;;;;20.52;100.00;96390.38;1224012;75;2921661;-68
2023/08/29 09:57:11;;;;;;;3.40;2.30;;;;;;;20.39;100.00;96394.22;1224321;75;2920672;-66
2023/08/29 09:59:46;;;;;;;2.90;2.60;;;;;;;20.42;100.00;96396.59;1224055;75;2923670;-67
2023/08/29 10:02:20;;;;;;;3.50;2.70;;;;;;;20.35;100.00;96394.63;1224165;75;2925478;-70
2023/08/29 10:04:58;;;;;;;4.90;3.15;;;;;;;20.24;100.00;96397.19;1224469;75;2920919;-66
2023/08/29 10:07:41;;;;;;;3.40;2.95;;;;;;;20.06;100.00;96397.19;1224581;75;2923448;-66
2023/08/29 10:10:17;;;;;;;3.90;3.15;;;;;;;20.18;100.00;96400.22;1223752;75;2924673;-68
2023/08/29 10:12:51;;;;;;;4.65;2.70;;;;;;;20.46;100.00;96406.56;1224530;75;2930366;-66
2023/08/29 10:15:26;;;;;;;2.90;2.40;;;;;;;20.51;100.00;96397.22;1224215;75;2918150;-70
2023/08/29 10:18:00;;;;;;;4.15;3.05;;;;;;;20.58;100.00;96408.28;1224284;75;2927406;-68
2023/08/29 10:20:34;;;;;;;5.85;3.05;;;;;;;20.60;100.00;96407.72;1224303;75;2921517;-69
2023/08/29 10:23:10;;;;;;;2.90;2.40;;;;;;;20.76;100.00;96411.06;1224742;75;2923894;-65
2023/08/29 10:25:46;;;;;;;3.30;2.40;;;;;;;20.88;100.00;96416.81;1223939;75;2926077;-68
2023/08/29 10:28:21;;;;;;;3.70;2.45;;;;;;;20.93;100.00;96413.06;1224962;75;2924261;-66
2023/08/29 10:30:58;;;;;;;3.70;2.20;;;;;;;21.04;100.00;96410.47;1224397;75;2930626;-68
2023/08/29 10:33:31;;;;;;;3.65;2.60;;;;;;;21.30;100.00;96407.53;1224130;75;2939936;-69
2023/08/29 10:36:06;;;;;;;5.75;3.95;;;;;;;21.01;100.00;96405.34;1224110;75;2920412;-67
2023/08/29 10:38:43;;;;;;;4.50;3.35;;;;;;;21.17;100.00;96409.38;1224182;75;2921154;-68
2023/08/29 10:41:19;;;;;;;3.90;2.55;;;;;;;21.28;100.00;96399.75;1225012;75;2923873;-66
2023/08/29 10:43:53;;;;;;;4.30;3.30;;;;;;;21.12;100.00;96402.03;1223929;75;2931508;-67
2023/08/29 10:46:26;;;;;;;4.30;2.80;;;;;;;21.31;100.00;96398.59;1224342;75;2921990;-69
2023/08/29 10:49:02;;;;;;;3.85;2.95;;;;;;;21.25;100.00;96395.34;1224204;75;2925432;-68
2023/08/29 10:51:35;;;;;;;3.55;3.00;;;;;;;21.31;100.00;96389.50;1224832;75;2924553;-66
2023/08/29 10:54:08;;;;;;;7.05;4.70;;;;;;;20.38;100.00;96385.16;1224922;75;2919663;-69
2023/08/29 10:56:49;;;;;;;6.05;4.95;;;;;;;20.33;100.00;96382.63;1223729;75;2931941;-68
2023/08/29 10:59:36;;;;;;;8.30;6.20;;;;;;;19.98;100.00;96393.72;1223749;75;2924281;-67
2023/08/29 11:02:30;;;;;;;5.30;4.35;;;;;;;20.64;100.00;96389.31;1223890;75;2918346;-65
2023/08/29 11:05:19;;;;;;;8.35;5.80;;;;;;;20.17;100.00;96396.66;1223378;75;2923039;-67
2023/08/29 11:07:51;;;;;;;;;;;;;;;20.54;100.00;96388.50;1225356;75;2923008;-66
2023/08/29 11:10:25;;;;;;;6.95;5.10;;;;;;;20.37;100.00;96391.28;1224507;75;2944177;-65
2023/08/29 11:13:15;;;;;;;7.65;5.20;;;;;;;20.38;100.00;96385.16;1221456;75;3071585;-67
2023/08/29 11:16:12;;;;;;;6.95;5.65;;;;;;;20.21;100.00;96380.34;1224378;75;2925035;-65
2023/08/29 11:18:47;;;;;;;8.00;6.65;;;;;;;20.36;100.00;96378.69;1225021;75;2919312;-66
2023/08/29 11:21:21;;;;;;;9.90;6.35;;;;;;;20.40;100.00;96376.25;1224377;75;2926813;-66
2023/08/29 11:23:54;;;;;;;7.05;5.25;;;;;;;20.64;100.00;96377.47;1223865;75;2917883;-68
2023/08/29 11:26:27;;;;;;;6.85;5.50;;;;;;;20.84;100.00;96384.59;1223748;75;2927417;-67
2023/08/29 11:29:05;;;;;;;6.05;4.65;;;;;;;20.84;100.00;96384.59;1223755;75;2932077;-68
2023/08/29 11:31:42;;;;;;;8.10;5.30;;;;;;;20.39;100.00;96375.47;1224538;75;2923902;-67
2023/08/29 11:34:20;;;;;;;8.65;4.95;;;;;;;21.01;100.00;96380.28;1225154;75;2930138;-68
2023/08/29 11:36:54;;;;;;;6.90;4.50;;;;;;;21.38;100.00;96369.91;1224651;75;2926791;-67
2023/08/29 11:39:27;;;;;;;5.65;3.95;;;;;;;22.11;100.00;96377.41;1224691;75;2921277;-68